sensor_id;sensor_type;location;lat;lon;timestamp;P1;durP1;ratioP1;P2;durP2;ratioP2
3487;SDS011;38546;48.170;11.724;2024-03-08T00:02:01;27.53;;;15.77;;
3487;SDS011;38546;48.170;11.724;2024-03-08T00:04:32;29.90;;;14.63;;
3487;SDS011;38546;48.170;11.724;2024-03-08T00:07:02;34.40;;;17.10;;
3487;SDS011;38546;48.170;11.724;2024-03-08T00:09:33;30.30;;;15.83;;
3487;SDS011;38546;48.170;11.724;2024-03-08T00:12:04;28.77;;;15.53;;
3487;SDS011;38546;48.170;11.724;2024-03-08T00:14:36;28.67;;;14.87;;
3487;SDS011;38546;48.170;11.724;2024-03-08T00:17:07;32.80;;;16.50;;
3487;SDS011;38546;48.170;11.724;2024-03-08T00:19:39;28.47;;;16.63;;
3487;SDS011;38546;48.170;11.724;2024-03-08T00:22:11;32.60;;;16.57;;
3487;SDS011;38546;48.170;11.724;2024-03-08T00:24:42;30.83;;;15.97;;
3487;SDS011;38546;48.170;11.724;2024-03-08T00:27:13;35.83;;;16.93;;
3487;SDS011;38546;48.170;11.724;2024-03-08T00:29:44;27.33;;;15.43;;
3487;SDS011;38546;48.170;11.724;2024-03-08T00:32:15;24.77;;;14.83;;
3487;SDS011;38546;48.170;11.724;2024-03-08T00:34:47;29.83;;;15.40;;
3487;SDS011;38546;48.170;11.724;2024-03-08T00:37:17;25.70;;;14.30;;
3487;SDS011;38546;48.170;11.724;2024-03-08T00:39:48;37.70;;;15.00;;
3487;SDS011;38546;48.170;11.724;2024-03-08T00:42:20;27.63;;;14.53;;
3487;SDS011;38546;48.170;11.724;2024-03-08T00:44:51;29.57;;;14.77;;
3487;SDS011;38546;48.170;11.724;2024-03-08T00:47:21;24.23;;;14.20;;
3487;SDS011;38546;48.170;11.724;2024-03-08T00:49:52;29.97;;;15.10;;
3487;SDS011;38546;48.170;11.724;2024-03-08T00:52:23;31.67;;;15.43;;
3487;SDS011;38546;48.170;11.724;2024-03-08T00:54:54;29.60;;;15.50;;
3487;SDS011;38546;48.170;11.724;2024-03-08T00:57:25;32.63;;;15.97;;
3487;SDS011;38546;48.170;11.724;2024-03-08T00:59:55;32.03;;;15.40;;
3487;SDS011;38546;48.170;11.724;2024-03-08T01:02:26;30.13;;;17.50;;
3487;SDS011;38546;48.170;11.724;2024-03-08T01:04:56;33.03;;;16.63;;
3487;SDS011;38546;48.170;11.724;2024-03-08T01:07:28;40.13;;;17.47;;
3487;SDS011;38546;48.170;11.724;2024-03-08T01:09:58;26.97;;;14.70;;
3487;SDS011;38546;48.170;11.724;2024-03-08T01:12:30;38.10;;;16.60;;
3487;SDS011;38546;48.170;11.724;2024-03-08T01:15:01;34.93;;;17.80;;
3487;SDS011;38546;48.170;11.724;2024-03-08T01:17:32;32.03;;;16.10;;
3487;SDS011;38546;48.170;11.724;2024-03-08T01:20:03;32.77;;;16.77;;
3487;SDS011;38546;48.170;11.724;2024-03-08T01:22:35;32.90;;;16.50;;
3487;SDS011;38546;48.170;11.724;2024-03-08T01:25:06;33.27;;;16.50;;
3487;SDS011;38546;48.170;11.724;2024-03-08T01:27:38;31.57;;;17.30;;
3487;SDS011;38546;48.170;11.724;2024-03-08T01:30:09;37.60;;;17.90;;
3487;SDS011;38546;48.170;11.724;2024-03-08T01:32:40;35.30;;;16.83;;
3487;SDS011;38546;48.170;11.724;2024-03-08T01:35:12;29.00;;;15.57;;
3487;SDS011;38546;48.170;11.724;2024-03-08T01:37:43;35.57;;;18.03;;
3487;SDS011;38546;48.170;11.724;2024-03-08T01:40:16;32.00;;;17.17;;
3487;SDS011;38546;48.170;11.724;2024-03-08T01:42:47;33.27;;;17.47;;
3487;SDS011;38546;48.170;11.724;2024-03-08T01:45:18;28.30;;;15.53;;
3487;SDS011;38546;48.170;11.724;2024-03-08T01:47:49;35.97;;;17.40;;
3487;SDS011;38546;48.170;11.724;2024-03-08T01:50:20;36.27;;;16.93;;
3487;SDS011;38546;48.170;11.724;2024-03-08T01:52:50;38.07;;;18.40;;
3487;SDS011;38546;48.170;11.724;2024-03-08T01:55:22;36.73;;;17.03;;
3487;SDS011;38546;48.170;11.724;2024-03-08T01:57:52;30.30;;;16.70;;
3487;SDS011;38546;48.170;11.724;2024-03-08T02:00:23;36.87;;;18.20;;
3487;SDS011;38546;48.170;11.724;2024-03-08T02:02:56;40.70;;;20.30;;
3487;SDS011;38546;48.170;11.724;2024-03-08T02:05:27;28.17;;;16.27;;
3487;SDS011;38546;48.170;11.724;2024-03-08T02:08:02;34.43;;;17.77;;
3487;SDS011;38546;48.170;11.724;2024-03-08T02:10:33;33.97;;;17.63;;
3487;SDS011;38546;48.170;11.724;2024-03-08T02:13:04;37.17;;;18.10;;
3487;SDS011;38546;48.170;11.724;2024-03-08T02:18:29;32.90;;;17.07;;
3487;SDS011;38546;48.170;11.724;2024-03-08T02:21:01;33.23;;;16.20;;
3487;SDS011;38546;48.170;11.724;2024-03-08T02:23:34;30.73;;;16.27;;
3487;SDS011;38546;48.170;11.724;2024-03-08T02:26:04;35.10;;;17.27;;
3487;SDS011;38546;48.170;11.724;2024-03-08T02:28:37;37.60;;;19.97;;
3487;SDS011;38546;48.170;11.724;2024-03-08T02:31:09;35.33;;;18.00;;
3487;SDS011;38546;48.170;11.724;2024-03-08T02:33:39;37.17;;;18.47;;
3487;SDS011;38546;48.170;11.724;2024-03-08T02:36:10;35.93;;;17.13;;
3487;SDS011;38546;48.170;11.724;2024-03-08T02:38:41;32.97;;;17.23;;
3487;SDS011;38546;48.170;11.724;2024-03-08T02:41:13;40.03;;;20.30;;
3487;SDS011;38546;48.170;11.724;2024-03-08T02:43:44;38.50;;;17.30;;
3487;SDS011;38546;48.170;11.724;2024-03-08T02:46:15;41.10;;;18.80;;
3487;SDS011;38546;48.170;11.724;2024-03-08T02:48:46;50.77;;;20.20;;
3487;SDS011;38546;48.170;11.724;2024-03-08T02:51:17;33.43;;;18.20;;
3487;SDS011;38546;48.170;11.724;2024-03-08T02:53:47;39.97;;;19.37;;
3487;SDS011;38546;48.170;11.724;2024-03-08T02:56:21;37.83;;;19.37;;
3487;SDS011;38546;48.170;11.724;2024-03-08T02:58:52;41.83;;;19.47;;
3487;SDS011;38546;48.170;11.724;2024-03-08T03:01:26;38.03;;;18.60;;
3487;SDS011;38546;48.170;11.724;2024-03-08T03:03:57;40.10;;;19.37;;
3487;SDS011;38546;48.170;11.724;2024-03-08T03:06:28;38.87;;;18.23;;
3487;SDS011;38546;48.170;11.724;2024-03-08T03:08:59;32.50;;;17.30;;
3487;SDS011;38546;48.170;11.724;2024-03-08T03:11:30;39.80;;;18.93;;
3487;SDS011;38546;48.170;11.724;2024-03-08T03:14:01;35.17;;;18.83;;
3487;SDS011;38546;48.170;11.724;2024-03-08T03:16:32;41.43;;;18.50;;
3487;SDS011;38546;48.170;11.724;2024-03-08T03:19:02;37.13;;;18.80;;
3487;SDS011;38546;48.170;11.724;2024-03-08T03:21:35;38.03;;;18.40;;
3487;SDS011;38546;48.170;11.724;2024-03-08T03:24:06;44.17;;;18.90;;
3487;SDS011;38546;48.170;11.724;2024-03-08T03:26:40;40.50;;;20.60;;
3487;SDS011;38546;48.170;11.724;2024-03-08T03:29:10;38.47;;;18.50;;
3487;SDS011;38546;48.170;11.724;2024-03-08T03:31:41;35.37;;;18.23;;
3487;SDS011;38546;48.170;11.724;2024-03-08T03:34:12;41.00;;;19.53;;
3487;SDS011;38546;48.170;11.724;2024-03-08T03:36:43;42.50;;;20.33;;
3487;SDS011;38546;48.170;11.724;2024-03-08T03:39:17;45.97;;;22.30;;
3487;SDS011;38546;48.170;11.724;2024-03-08T03:41:50;45.30;;;20.73;;
3487;SDS011;38546;48.170;11.724;2024-03-08T03:44:21;38.47;;;19.50;;
3487;SDS011;38546;48.170;11.724;2024-03-08T03:46:53;53.80;;;22.60;;
3487;SDS011;38546;48.170;11.724;2024-03-08T03:49:24;37.50;;;20.40;;
3487;SDS011;38546;48.170;11.724;2024-03-08T03:51:55;53.50;;;21.23;;
3487;SDS011;38546;48.170;11.724;2024-03-08T03:54:26;42.70;;;22.93;;
3487;SDS011;38546;48.170;11.724;2024-03-08T03:56:57;41.40;;;20.00;;
3487;SDS011;38546;48.170;11.724;2024-03-08T03:59:27;43.03;;;22.13;;
3487;SDS011;38546;48.170;11.724;2024-03-08T04:01:58;49.73;;;22.93;;
3487;SDS011;38546;48.170;11.724;2024-03-08T04:04:29;49.63;;;23.17;;
3487;SDS011;38546;48.170;11.724;2024-03-08T04:07:00;44.70;;;25.30;;
3487;SDS011;38546;48.170;11.724;2024-03-08T04:09:34;47.33;;;21.40;;
3487;SDS011;38546;48.170;11.724;2024-03-08T04:12:05;47.60;;;24.03;;
3487;SDS011;38546;48.170;11.724;2024-03-08T04:14:38;52.40;;;24.83;;
3487;SDS011;38546;48.170;11.724;2024-03-08T04:17:11;46.07;;;23.57;;
3487;SDS011;38546;48.170;11.724;2024-03-08T04:19:42;54.30;;;24.73;;
3487;SDS011;38546;48.170;11.724;2024-03-08T04:22:13;52.63;;;24.97;;
3487;SDS011;38546;48.170;11.724;2024-03-08T04:24:44;47.23;;;23.40;;
3487;SDS011;38546;48.170;11.724;2024-03-08T04:27:15;58.77;;;26.47;;
3487;SDS011;38546;48.170;11.724;2024-03-08T04:29:46;53.67;;;27.07;;
3487;SDS011;38546;48.170;11.724;2024-03-08T04:32:17;56.17;;;26.97;;
3487;SDS011;38546;48.170;11.724;2024-03-08T04:34:47;48.73;;;24.20;;
3487;SDS011;38546;48.170;11.724;2024-03-08T04:37:19;56.33;;;26.13;;
3487;SDS011;38546;48.170;11.724;2024-03-08T04:39:53;58.47;;;27.90;;
3487;SDS011;38546;48.170;11.724;2024-03-08T04:42:23;58.57;;;27.07;;
3487;SDS011;38546;48.170;11.724;2024-03-08T04:44:55;63.40;;;29.03;;
3487;SDS011;38546;48.170;11.724;2024-03-08T04:47:25;63.30;;;28.67;;
3487;SDS011;38546;48.170;11.724;2024-03-08T04:49:56;62.60;;;29.03;;
3487;SDS011;38546;48.170;11.724;2024-03-08T04:52:28;66.90;;;28.53;;
3487;SDS011;38546;48.170;11.724;2024-03-08T04:54:59;62.83;;;28.87;;
3487;SDS011;38546;48.170;11.724;2024-03-08T04:57:29;55.40;;;26.60;;
3487;SDS011;38546;48.170;11.724;2024-03-08T05:00:00;60.87;;;29.10;;
3487;SDS011;38546;48.170;11.724;2024-03-08T05:02:34;61.73;;;28.27;;
3487;SDS011;38546;48.170;11.724;2024-03-08T05:05:05;71.00;;;29.10;;
3487;SDS011;38546;48.170;11.724;2024-03-08T05:07:36;60.47;;;26.70;;
3487;SDS011;38546;48.170;11.724;2024-03-08T05:10:07;54.10;;;24.70;;
3487;SDS011;38546;48.170;11.724;2024-03-08T05:12:39;58.13;;;27.77;;
3487;SDS011;38546;48.170;11.724;2024-03-08T05:15:09;69.03;;;28.00;;
3487;SDS011;38546;48.170;11.724;2024-03-08T05:17:41;64.80;;;28.40;;
3487;SDS011;38546;48.170;11.724;2024-03-08T05:20:12;69.33;;;29.10;;
3487;SDS011;38546;48.170;11.724;2024-03-08T05:22:43;59.00;;;27.10;;
3487;SDS011;38546;48.170;11.724;2024-03-08T05:25:14;63.60;;;26.87;;
3487;SDS011;38546;48.170;11.724;2024-03-08T05:27:45;65.20;;;28.33;;
3487;SDS011;38546;48.170;11.724;2024-03-08T05:30:17;64.10;;;28.77;;
3487;SDS011;38546;48.170;11.724;2024-03-08T05:32:48;57.70;;;27.70;;
3487;SDS011;38546;48.170;11.724;2024-03-08T05:35:18;66.63;;;28.33;;
3487;SDS011;38546;48.170;11.724;2024-03-08T05:37:49;69.07;;;28.33;;
3487;SDS011;38546;48.170;11.724;2024-03-08T05:40:20;77.33;;;28.93;;
3487;SDS011;38546;48.170;11.724;2024-03-08T05:42:50;65.53;;;30.13;;
3487;SDS011;38546;48.170;11.724;2024-03-08T05:45:21;73.60;;;31.87;;
3487;SDS011;38546;48.170;11.724;2024-03-08T05:47:52;74.30;;;29.70;;
3487;SDS011;38546;48.170;11.724;2024-03-08T05:50:23;64.63;;;27.33;;
3487;SDS011;38546;48.170;11.724;2024-03-08T05:52:54;70.17;;;30.97;;
3487;SDS011;38546;48.170;11.724;2024-03-08T05:55:25;67.40;;;29.97;;
3487;SDS011;38546;48.170;11.724;2024-03-08T05:57:55;69.33;;;29.60;;
3487;SDS011;38546;48.170;11.724;2024-03-08T06:00:26;72.17;;;29.10;;
3487;SDS011;38546;48.170;11.724;2024-03-08T06:02:58;64.70;;;27.07;;
3487;SDS011;38546;48.170;11.724;2024-03-08T06:05:29;67.47;;;30.20;;
3487;SDS011;38546;48.170;11.724;2024-03-08T06:07:59;72.47;;;28.57;;
3487;SDS011;38546;48.170;11.724;2024-03-08T06:10:30;84.67;;;29.53;;
3487;SDS011;38546;48.170;11.724;2024-03-08T06:13:02;71.70;;;28.47;;
3487;SDS011;38546;48.170;11.724;2024-03-08T06:15:33;72.53;;;30.50;;
3487;SDS011;38546;48.170;11.724;2024-03-08T06:18:04;74.63;;;31.90;;
3487;SDS011;38546;48.170;11.724;2024-03-08T06:20:35;74.87;;;30.67;;
3487;SDS011;38546;48.170;11.724;2024-03-08T06:23:08;76.37;;;29.70;;
3487;SDS011;38546;48.170;11.724;2024-03-08T06:25:39;67.03;;;29.97;;
3487;SDS011;38546;48.170;11.724;2024-03-08T06:28:09;66.83;;;28.57;;
3487;SDS011;38546;48.170;11.724;2024-03-08T06:30:40;74.50;;;31.60;;
3487;SDS011;38546;48.170;11.724;2024-03-08T06:33:12;67.77;;;30.57;;
3487;SDS011;38546;48.170;11.724;2024-03-08T06:35:42;77.37;;;30.17;;
3487;SDS011;38546;48.170;11.724;2024-03-08T06:38:13;73.20;;;30.53;;
3487;SDS011;38546;48.170;11.724;2024-03-08T06:40:45;74.07;;;32.17;;
3487;SDS011;38546;48.170;11.724;2024-03-08T06:43:18;63.53;;;28.73;;
3487;SDS011;38546;48.170;11.724;2024-03-08T06:45:49;78.97;;;30.80;;
3487;SDS011;38546;48.170;11.724;2024-03-08T06:48:19;69.10;;;31.27;;
3487;SDS011;38546;48.170;11.724;2024-03-08T06:50:50;70.47;;;30.90;;
3487;SDS011;38546;48.170;11.724;2024-03-08T06:53:21;75.07;;;32.30;;
3487;SDS011;38546;48.170;11.724;2024-03-08T06:55:52;81.17;;;30.50;;
3487;SDS011;38546;48.170;11.724;2024-03-08T06:58:22;70.00;;;30.30;;
3487;SDS011;38546;48.170;11.724;2024-03-08T07:00:53;73.27;;;31.40;;
3487;SDS011;38546;48.170;11.724;2024-03-08T07:03:28;72.13;;;27.97;;
3487;SDS011;38546;48.170;11.724;2024-03-08T07:05:59;64.90;;;30.03;;
3487;SDS011;38546;48.170;11.724;2024-03-08T07:08:32;61.50;;;26.97;;
3487;SDS011;38546;48.170;11.724;2024-03-08T07:11:03;69.27;;;29.07;;
3487;SDS011;38546;48.170;11.724;2024-03-08T07:13:33;64.30;;;28.60;;
3487;SDS011;38546;48.170;11.724;2024-03-08T07:16:04;61.77;;;28.33;;
3487;SDS011;38546;48.170;11.724;2024-03-08T07:18:35;58.37;;;25.30;;
3487;SDS011;38546;48.170;11.724;2024-03-08T07:21:10;54.83;;;25.40;;
3487;SDS011;38546;48.170;11.724;2024-03-08T07:23:40;55.93;;;27.00;;
3487;SDS011;38546;48.170;11.724;2024-03-08T07:26:24;51.83;;;24.50;;
3487;SDS011;38546;48.170;11.724;2024-03-08T07:28:54;55.00;;;24.33;;
3487;SDS011;38546;48.170;11.724;2024-03-08T07:31:28;64.10;;;25.90;;
3487;SDS011;38546;48.170;11.724;2024-03-08T07:34:07;63.30;;;26.30;;
3487;SDS011;38546;48.170;11.724;2024-03-08T07:36:38;59.87;;;26.57;;
3487;SDS011;38546;48.170;11.724;2024-03-08T07:39:09;60.60;;;26.17;;
3487;SDS011;38546;48.170;11.724;2024-03-08T07:41:41;54.07;;;24.10;;
3487;SDS011;38546;48.170;11.724;2024-03-08T07:44:12;44.83;;;23.27;;
3487;SDS011;38546;48.170;11.724;2024-03-08T07:46:44;43.57;;;21.17;;
3487;SDS011;38546;48.170;11.724;2024-03-08T07:49:15;50.57;;;24.00;;
3487;SDS011;38546;48.170;11.724;2024-03-08T07:51:46;44.37;;;21.47;;
3487;SDS011;38546;48.170;11.724;2024-03-08T07:54:19;47.83;;;21.93;;
3487;SDS011;38546;48.170;11.724;2024-03-08T07:56:50;43.30;;;21.23;;
3487;SDS011;38546;48.170;11.724;2024-03-08T07:59:22;46.53;;;22.37;;
3487;SDS011;38546;48.170;11.724;2024-03-08T08:01:53;50.07;;;21.70;;
3487;SDS011;38546;48.170;11.724;2024-03-08T08:04:24;42.90;;;19.93;;
3487;SDS011;38546;48.170;11.724;2024-03-08T08:06:55;45.43;;;23.13;;
3487;SDS011;38546;48.170;11.724;2024-03-08T08:09:26;50.47;;;22.60;;
3487;SDS011;38546;48.170;11.724;2024-03-08T08:12:04;46.63;;;22.00;;
3487;SDS011;38546;48.170;11.724;2024-03-08T08:14:37;44.60;;;20.63;;
3487;SDS011;38546;48.170;11.724;2024-03-08T08:17:09;49.40;;;21.93;;
3487;SDS011;38546;48.170;11.724;2024-03-08T08:19:42;32.90;;;18.13;;
3487;SDS011;38546;48.170;11.724;2024-03-08T08:22:13;37.70;;;20.33;;
3487;SDS011;38546;48.170;11.724;2024-03-08T08:24:44;40.40;;;19.60;;
3487;SDS011;38546;48.170;11.724;2024-03-08T08:27:14;40.63;;;20.60;;
3487;SDS011;38546;48.170;11.724;2024-03-08T08:29:45;41.47;;;20.10;;
3487;SDS011;38546;48.170;11.724;2024-03-08T08:32:16;41.37;;;20.90;;
3487;SDS011;38546;48.170;11.724;2024-03-08T08:34:46;43.53;;;20.03;;
3487;SDS011;38546;48.170;11.724;2024-03-08T08:37:18;42.60;;;21.00;;
3487;SDS011;38546;48.170;11.724;2024-03-08T08:39:48;38.37;;;19.37;;
3487;SDS011;38546;48.170;11.724;2024-03-08T08:42:21;44.03;;;20.63;;
3487;SDS011;38546;48.170;11.724;2024-03-08T08:44:52;39.40;;;19.70;;
3487;SDS011;38546;48.170;11.724;2024-03-08T08:47:22;46.53;;;22.63;;
3487;SDS011;38546;48.170;11.724;2024-03-08T08:49:54;45.50;;;23.70;;
3487;SDS011;38546;48.170;11.724;2024-03-08T08:52:26;45.20;;;23.00;;
3487;SDS011;38546;48.170;11.724;2024-03-08T08:54:57;43.80;;;19.77;;
3487;SDS011;38546;48.170;11.724;2024-03-08T08:57:28;46.67;;;23.33;;
3487;SDS011;38546;48.170;11.724;2024-03-08T08:59:59;43.03;;;21.43;;
3487;SDS011;38546;48.170;11.724;2024-03-08T09:02:30;42.23;;;21.50;;
3487;SDS011;38546;48.170;11.724;2024-03-08T09:05:00;49.87;;;23.30;;
3487;SDS011;38546;48.170;11.724;2024-03-08T09:07:31;41.67;;;20.30;;
3487;SDS011;38546;48.170;11.724;2024-03-08T09:10:03;44.83;;;21.53;;
3487;SDS011;38546;48.170;11.724;2024-03-08T09:12:35;43.60;;;22.23;;
3487;SDS011;38546;48.170;11.724;2024-03-08T09:15:06;43.67;;;23.00;;
3487;SDS011;38546;48.170;11.724;2024-03-08T09:17:40;44.20;;;22.30;;
3487;SDS011;38546;48.170;11.724;2024-03-08T09:20:13;43.37;;;22.80;;
3487;SDS011;38546;48.170;11.724;2024-03-08T09:22:45;44.07;;;21.10;;
3487;SDS011;38546;48.170;11.724;2024-03-08T09:25:16;40.83;;;21.80;;
3487;SDS011;38546;48.170;11.724;2024-03-08T09:27:46;37.40;;;21.03;;
3487;SDS011;38546;48.170;11.724;2024-03-08T09:30:17;37.47;;;20.90;;
3487;SDS011;38546;48.170;11.724;2024-03-08T09:32:48;39.23;;;20.53;;
3487;SDS011;38546;48.170;11.724;2024-03-08T09:35:21;42.77;;;20.13;;
3487;SDS011;38546;48.170;11.724;2024-03-08T09:37:51;41.57;;;20.97;;
3487;SDS011;38546;48.170;11.724;2024-03-08T09:40:23;34.67;;;18.67;;
3487;SDS011;38546;48.170;11.724;2024-03-08T09:42:55;37.13;;;20.07;;
3487;SDS011;38546;48.170;11.724;2024-03-08T09:45:27;37.50;;;19.27;;
3487;SDS011;38546;48.170;11.724;2024-03-08T09:48:02;37.70;;;18.97;;
3487;SDS011;38546;48.170;11.724;2024-03-08T09:50:33;37.93;;;18.07;;
3487;SDS011;38546;48.170;11.724;2024-03-08T09:53:04;34.87;;;18.87;;
3487;SDS011;38546;48.170;11.724;2024-03-08T09:55:38;32.90;;;18.03;;
3487;SDS011;38546;48.170;11.724;2024-03-08T09:58:15;34.17;;;18.03;;
3487;SDS011;38546;48.170;11.724;2024-03-08T10:00:55;36.70;;;18.30;;
3487;SDS011;38546;48.170;11.724;2024-03-08T10:03:27;37.60;;;17.13;;
3487;SDS011;38546;48.170;11.724;2024-03-08T10:06:00;35.13;;;16.23;;
3487;SDS011;38546;48.170;11.724;2024-03-08T10:08:31;37.87;;;19.33;;
3487;SDS011;38546;48.170;11.724;2024-03-08T10:11:02;39.43;;;19.60;;
3487;SDS011;38546;48.170;11.724;2024-03-08T10:13:34;37.73;;;19.80;;
3487;SDS011;38546;48.170;11.724;2024-03-08T10:16:06;34.10;;;18.70;;
3487;SDS011;38546;48.170;11.724;2024-03-08T10:18:38;33.93;;;16.43;;
3487;SDS011;38546;48.170;11.724;2024-03-08T10:21:09;33.37;;;17.70;;
3487;SDS011;38546;48.170;11.724;2024-03-08T10:23:40;34.47;;;18.63;;
3487;SDS011;38546;48.170;11.724;2024-03-08T10:26:13;34.13;;;18.00;;
3487;SDS011;38546;48.170;11.724;2024-03-08T10:28:49;30.47;;;16.40;;
3487;SDS011;38546;48.170;11.724;2024-03-08T10:31:21;33.63;;;18.93;;
3487;SDS011;38546;48.170;11.724;2024-03-08T10:33:51;34.73;;;17.40;;
3487;SDS011;38546;48.170;11.724;2024-03-08T10:36:22;34.53;;;18.90;;
3487;SDS011;38546;48.170;11.724;2024-03-08T10:38:53;32.00;;;16.70;;
3487;SDS011;38546;48.170;11.724;2024-03-08T10:41:28;30.60;;;18.00;;
3487;SDS011;38546;48.170;11.724;2024-03-08T10:44:13;39.17;;;17.80;;
3487;SDS011;38546;48.170;11.724;2024-03-08T10:47:26;31.93;;;16.27;;
3487;SDS011;38546;48.170;11.724;2024-03-08T10:50:15;29.30;;;16.50;;
3487;SDS011;38546;48.170;11.724;2024-03-08T10:52:52;35.50;;;18.10;;
3487;SDS011;38546;48.170;11.724;2024-03-08T10:55:25;28.70;;;16.80;;
3487;SDS011;38546;48.170;11.724;2024-03-08T10:57:58;29.93;;;16.80;;
3487;SDS011;38546;48.170;11.724;2024-03-08T11:00:28;32.57;;;17.40;;
3487;SDS011;38546;48.170;11.724;2024-03-08T11:03:01;32.47;;;17.20;;
3487;SDS011;38546;48.170;11.724;2024-03-08T11:05:37;30.20;;;16.30;;
3487;SDS011;38546;48.170;11.724;2024-03-08T11:08:20;30.53;;;16.33;;
3487;SDS011;38546;48.170;11.724;2024-03-08T11:10:53;32.47;;;16.70;;
3487;SDS011;38546;48.170;11.724;2024-03-08T11:13:35;29.50;;;16.77;;
3487;SDS011;38546;48.170;11.724;2024-03-08T11:16:10;31.03;;;17.80;;
3487;SDS011;38546;48.170;11.724;2024-03-08T11:22:20;31.17;;;16.00;;
3487;SDS011;38546;48.170;11.724;2024-03-08T11:24:58;26.13;;;15.40;;
3487;SDS011;38546;48.170;11.724;2024-03-08T11:27:31;27.10;;;15.10;;
3487;SDS011;38546;48.170;11.724;2024-03-08T11:30:03;32.10;;;16.63;;
3487;SDS011;38546;48.170;11.724;2024-03-08T11:32:46;32.47;;;15.90;;
3487;SDS011;38546;48.170;11.724;2024-03-08T11:35:18;29.20;;;17.10;;
3487;SDS011;38546;48.170;11.724;2024-03-08T11:37:57;27.37;;;15.43;;
3487;SDS011;38546;48.170;11.724;2024-03-08T11:40:30;28.63;;;15.77;;
3487;SDS011;38546;48.170;11.724;2024-03-08T11:43:03;27.80;;;16.67;;
3487;SDS011;38546;48.170;11.724;2024-03-08T11:45:37;32.13;;;15.70;;
3487;SDS011;38546;48.170;11.724;2024-03-08T11:48:07;33.87;;;16.70;;
3487;SDS011;38546;48.170;11.724;2024-03-08T11:50:39;27.60;;;15.90;;
3487;SDS011;38546;48.170;11.724;2024-03-08T11:53:09;35.23;;;16.97;;
3487;SDS011;38546;48.170;11.724;2024-03-08T11:55:40;28.00;;;16.67;;
3487;SDS011;38546;48.170;11.724;2024-03-08T11:58:12;31.67;;;18.87;;
3487;SDS011;38546;48.170;11.724;2024-03-08T12:00:42;27.40;;;15.87;;
3487;SDS011;38546;48.170;11.724;2024-03-08T12:03:16;29.97;;;15.27;;
3487;SDS011;38546;48.170;11.724;2024-03-08T12:05:52;28.17;;;16.23;;
3487;SDS011;38546;48.170;11.724;2024-03-08T12:08:32;29.43;;;16.40;;
3487;SDS011;38546;48.170;11.724;2024-03-08T12:11:03;28.30;;;14.50;;
3487;SDS011;38546;48.170;11.724;2024-03-08T12:13:35;28.07;;;16.47;;
3487;SDS011;38546;48.170;11.724;2024-03-08T12:16:05;26.90;;;16.10;;
3487;SDS011;38546;48.170;11.724;2024-03-08T12:18:38;27.07;;;14.70;;
3487;SDS011;38546;48.170;11.724;2024-03-08T12:21:11;26.50;;;15.03;;
3487;SDS011;38546;48.170;11.724;2024-03-08T12:24:05;26.93;;;14.80;;
3487;SDS011;38546;48.170;11.724;2024-03-08T12:26:38;29.37;;;16.03;;
3487;SDS011;38546;48.170;11.724;2024-03-08T12:29:25;30.77;;;16.30;;
3487;SDS011;38546;48.170;11.724;2024-03-08T12:31:58;31.50;;;16.50;;
3487;SDS011;38546;48.170;11.724;2024-03-08T12:34:31;26.23;;;14.27;;
3487;SDS011;38546;48.170;11.724;2024-03-08T12:37:02;31.37;;;15.80;;
3487;SDS011;38546;48.170;11.724;2024-03-08T12:39:37;24.77;;;14.30;;
3487;SDS011;38546;48.170;11.724;2024-03-08T12:42:07;27.47;;;13.90;;
3487;SDS011;38546;48.170;11.724;2024-03-08T12:44:38;21.63;;;13.67;;
3487;SDS011;38546;48.170;11.724;2024-03-08T12:47:13;24.87;;;15.27;;
3487;SDS011;38546;48.170;11.724;2024-03-08T12:49:44;28.20;;;14.70;;
3487;SDS011;38546;48.170;11.724;2024-03-08T12:52:15;26.53;;;13.67;;
3487;SDS011;38546;48.170;11.724;2024-03-08T12:54:48;24.83;;;14.60;;
3487;SDS011;38546;48.170;11.724;2024-03-08T12:57:19;27.27;;;14.77;;
3487;SDS011;38546;48.170;11.724;2024-03-08T12:59:50;28.13;;;15.17;;
3487;SDS011;38546;48.170;11.724;2024-03-08T13:02:21;20.53;;;12.23;;
3487;SDS011;38546;48.170;11.724;2024-03-08T13:04:51;22.50;;;13.20;;
3487;SDS011;38546;48.170;11.724;2024-03-08T13:07:27;25.17;;;15.13;;
3487;SDS011;38546;48.170;11.724;2024-03-08T13:09:58;25.83;;;13.37;;
3487;SDS011;38546;48.170;11.724;2024-03-08T13:12:29;24.57;;;15.73;;
3487;SDS011;38546;48.170;11.724;2024-03-08T13:15:00;22.50;;;14.43;;
3487;SDS011;38546;48.170;11.724;2024-03-08T13:17:31;21.43;;;12.20;;
3487;SDS011;38546;48.170;11.724;2024-03-08T13:20:02;21.37;;;13.30;;
3487;SDS011;38546;48.170;11.724;2024-03-08T13:22:35;27.30;;;14.00;;
3487;SDS011;38546;48.170;11.724;2024-03-08T13:25:09;24.63;;;13.40;;
3487;SDS011;38546;48.170;11.724;2024-03-08T13:27:43;24.90;;;13.67;;
3487;SDS011;38546;48.170;11.724;2024-03-08T13:30:13;22.53;;;13.83;;
3487;SDS011;38546;48.170;11.724;2024-03-08T13:32:48;23.33;;;15.13;;
3487;SDS011;38546;48.170;11.724;2024-03-08T13:35:18;23.00;;;13.10;;
3487;SDS011;38546;48.170;11.724;2024-03-08T13:37:54;23.90;;;14.60;;
3487;SDS011;38546;48.170;11.724;2024-03-08T13:40:25;30.67;;;16.53;;
3487;SDS011;38546;48.170;11.724;2024-03-08T13:42:56;23.30;;;14.30;;
3487;SDS011;38546;48.170;11.724;2024-03-08T13:45:26;30.83;;;15.37;;
3487;SDS011;38546;48.170;11.724;2024-03-08T13:47:57;26.43;;;13.10;;
3487;SDS011;38546;48.170;11.724;2024-03-08T13:50:29;30.33;;;14.30;;
3487;SDS011;38546;48.170;11.724;2024-03-08T13:53:00;24.67;;;14.57;;
3487;SDS011;38546;48.170;11.724;2024-03-08T13:55:30;26.17;;;14.40;;
3487;SDS011;38546;48.170;11.724;2024-03-08T13:58:03;25.13;;;15.33;;
3487;SDS011;38546;48.170;11.724;2024-03-08T14:00:34;25.43;;;14.50;;
3487;SDS011;38546;48.170;11.724;2024-03-08T14:03:08;29.73;;;17.30;;
3487;SDS011;38546;48.170;11.724;2024-03-08T14:05:40;25.70;;;15.10;;
3487;SDS011;38546;48.170;11.724;2024-03-08T14:08:12;33.17;;;17.17;;
3487;SDS011;38546;48.170;11.724;2024-03-08T14:10:44;23.57;;;13.63;;
3487;SDS011;38546;48.170;11.724;2024-03-08T14:13:17;26.03;;;14.00;;
3487;SDS011;38546;48.170;11.724;2024-03-08T14:15:48;30.10;;;15.83;;
3487;SDS011;38546;48.170;11.724;2024-03-08T14:18:19;23.17;;;14.40;;
3487;SDS011;38546;48.170;11.724;2024-03-08T14:20:50;23.87;;;14.17;;
3487;SDS011;38546;48.170;11.724;2024-03-08T14:23:21;28.50;;;15.60;;
3487;SDS011;38546;48.170;11.724;2024-03-08T14:25:52;27.37;;;15.37;;
3487;SDS011;38546;48.170;11.724;2024-03-08T14:28:22;27.40;;;15.53;;
3487;SDS011;38546;48.170;11.724;2024-03-08T14:30:53;25.83;;;14.23;;
3487;SDS011;38546;48.170;11.724;2024-03-08T14:33:25;27.17;;;14.83;;
3487;SDS011;38546;48.170;11.724;2024-03-08T14:35:56;25.20;;;14.53;;
3487;SDS011;38546;48.170;11.724;2024-03-08T14:38:26;25.17;;;15.13;;
3487;SDS011;38546;48.170;11.724;2024-03-08T14:40:57;22.47;;;13.83;;
3487;SDS011;38546;48.170;11.724;2024-03-08T14:43:28;24.00;;;13.57;;
3487;SDS011;38546;48.170;11.724;2024-03-08T14:45:58;23.80;;;14.03;;
3487;SDS011;38546;48.170;11.724;2024-03-08T14:48:29;23.50;;;13.20;;
3487;SDS011;38546;48.170;11.724;2024-03-08T14:51:00;28.73;;;15.63;;
3487;SDS011;38546;48.170;11.724;2024-03-08T14:53:30;24.13;;;14.80;;
3487;SDS011;38546;48.170;11.724;2024-03-08T14:56:01;21.33;;;12.10;;